Time;durP1;ratioP1;P1;durP2;ratioP2;P2;SDS_P1;SDS_P2;PMS_P1;PMS_P2;Temp;Humidity;BMP_temperature;BMP_pressure;BME280_temperature;BME280_humidity;BME280_pressure;Samples;Min_cycle;Max_cycle;Signal;HPM_P1;HPM_P2
2022/06/19 00:00:49;;;;;;;10.80;3.40;;;20.30;68.60;;;;;;6235713;23;20297;-86
2022/06/19 00:03:22;;;;;;;9.50;3.42;;;20.40;68.40;;;;;;6224439;23;20173;-84
2022/06/19 00:05:48;;;;;;;11.52;3.67;;;20.30;68.70;;;;;;6232441;23;20275;-85
2022/06/19 00:08:14;;;;;;;6.90;2.57;;;20.30;67.50;;;;;;6228752;23;20156;-85
2022/06/19 00:10:40;;;;;;;19.80;3.80;;;20.20;67.40;;;;;;6248695;23;20148;-85
2022/06/19 00:13:05;;;;;;;8.53;3.00;;;20.30;67.30;;;;;;6221907;23;20638;-85
2022/06/19 00:15:31;;;;;;;6.90;3.30;;;20.30;67.50;;;;;;6221854;23;20192;-85
2022/06/19 00:17:57;;;;;;;14.63;3.77;;;20.20;68.00;;;;;;6248009;23;20164;-86
2022/06/19 00:20:22;;;;;;;5.77;2.50;;;20.10;68.20;;;;;;6221836;23;20215;-86
2022/06/19 00:22:48;;;;;;;7.27;2.87;;;20.10;67.30;;;;;;6220931;23;20645;-86
2022/06/19 00:25:14;;;;;;;15.47;2.83;;;20.00;66.40;;;;;;6249838;23;20515;-86
2022/06/19 00:27:40;;;;;;;9.77;2.83;;;19.80;65.50;;;;;;6224179;23;20163;-85
2022/06/19 00:30:10;;;;;;;11.85;3.65;;;19.70;65.50;;;;;;6249804;23;20156;-85
2022/06/19 00:32:36;;;;;;;8.40;2.75;;;19.70;65.30;;;;;;6220847;23;20655;-86
2022/06/19 00:35:04;;;;;;;7.93;3.00;;;19.60;65.10;;;;;;6221198;23;20298;-85
2022/06/19 00:37:30;;;;;;;8.98;2.75;;;19.50;65.00;;;;;;6220504;23;20455;-85
2022/06/19 00:39:57;;;;;;;7.23;2.60;;;19.40;64.90;;;;;;6220834;23;20483;-85
2022/06/19 00:42:24;;;;;;;8.32;2.63;;;19.40;64.80;;;;;;6220570;22;20390;-85
2022/06/19 00:44:51;;;;;;;9.68;2.95;;;19.30;65.40;;;;;;6220757;23;20259;-86
2022/06/19 00:47:23;;;;;;;7.70;2.70;;;19.40;65.80;;;;;;6220683;23;20475;-86
2022/06/19 00:49:56;;;;;;;7.47;2.72;;;19.50;66.90;;;;;;6221117;23;20156;-85
2022/06/19 00:52:30;;;;;;;10.02;2.65;;;19.60;65.70;;;;;;6220787;22;20156;-85
2022/06/19 00:55:26;;;;;;;10.88;2.50;;;19.70;65.20;;;;;;6196083;23;20167;-86
2022/06/19 00:58:10;;;;;;;10.25;3.08;;;19.80;65.10;;;;;;6220649;23;20160;-85
2022/06/19 01:00:36;;;;;;;17.75;4.07;;;19.80;63.40;;;;;;6220661;23;20152;-85
2022/06/19 01:03:11;;;;;;;9.57;2.88;;;19.80;62.40;;;;;;6195425;23;20184;-86
2022/06/19 01:05:40;;;;;;;8.43;2.70;;;19.70;62.40;;;;;;6247656;23;20176;-87
2022/06/19 01:08:06;;;;;;;14.35;2.53;;;19.60;60.40;;;;;;6247424;23;20172;-87
2022/06/19 01:10:34;;;;;;;10.65;2.60;;;19.70;58.30;;;;;;6219966;23;20205;-87
2022/06/19 01:13:00;;;;;;;12.20;2.25;;;19.50;56.00;;;;;;6219561;23;20173;-87
2022/06/19 01:15:26;;;;;;;7.97;2.00;;;19.40;55.40;;;;;;6220400;23;20161;-86
2022/06/19 01:17:56;;;;;;;11.18;2.60;;;19.50;55.20;;;;;;6220287;23;20407;-87
2022/06/19 01:20:23;;;;;;;9.50;2.28;;;19.40;55.00;;;;;;6247649;23;20183;-87
2022/06/19 01:23:08;;;;;;;5.47;1.80;;;19.40;54.90;;;;;;6219982;23;20207;-87
2022/06/19 01:25:37;;;;;;;9.68;2.25;;;19.40;53.30;;;;;;6219811;23;20663;-88
2022/06/19 01:31:11;;;;;;;14.57;2.63;;;19.10;53.40;;;;;;6247053;23;20215;-85
2022/06/19 01:34:26;;;;;;;10.52;2.40;;;19.10;53.50;;;;;;6246958;22;20196;-87
2022/06/19 01:37:14;;;;;;;12.57;2.55;;;19.00;54.00;;;;;;6220076;23;20215;-87
2022/06/19 01:40:09;;;;;;;9.02;2.90;;;18.90;54.20;;;;;;6220647;23;20153;-85
2022/06/19 01:42:35;;;;;;;7.72;2.15;;;18.80;54.20;;;;;;6248672;22;20243;-86
2022/06/19 01:45:01;;;;;;;8.87;1.87;;;18.70;54.80;;;;;;6221130;23;20258;-86
2022/06/19 01:47:27;;;;;;;10.00;2.13;;;18.70;55.10;;;;;;6221163;23;20171;-86
2022/06/19 01:49:56;;;;;;;9.75;1.92;;;18.70;55.40;;;;;;6197248;23;20474;-85
2022/06/19 01:52:25;;;;;;;14.90;2.78;;;18.80;54.80;;;;;;6221495;22;20665;-86
2022/06/19 01:55:11;;;;;;;13.45;2.50;;;19.00;53.40;;;;;;6221221;23;20247;-85
2022/06/19 01:57:40;;;;;;;7.40;2.53;;;18.90;53.10;;;;;;6220759;23;20229;-86
2022/06/19 02:00:12;;;;;;;12.10;2.53;;;18.90;51.50;;;;;;6220911;23;20208;-86
2022/06/19 02:02:40;;;;;;;4.90;1.98;;;18.90;51.80;;;;;;6221345;23;20204;-85
2022/06/19 02:05:07;;;;;;;3.95;1.77;;;18.90;51.30;;;;;;6223422;23;20184;-85
2022/06/19 02:07:33;;;;;;;9.63;2.85;;;18.90;50.70;;;;;;6257569;23;20202;-85
2022/06/19 02:10:00;;;;;;;9.32;2.30;;;18.90;51.10;;;;;;6225056;23;20160;-87
2022/06/19 02:12:31;;;;;;;8.23;1.77;;;19.00;50.60;;;;;;6220522;22;20480;-86
2022/06/19 02:14:57;;;;;;;13.65;2.33;;;18.90;51.40;;;;;;6220363;23;20157;-86
2022/06/19 02:17:42;;;;;;;5.05;2.28;;;18.90;51.80;;;;;;6221037;23;20548;-86
2022/06/19 02:20:10;;;;;;;10.77;2.35;;;18.90;52.30;;;;;;6226598;23;20152;-87
2022/06/19 02:22:36;;;;;;;4.82;1.75;;;19.00;52.30;;;;;;6239524;23;20191;-86
2022/06/19 02:25:03;;;;;;;5.03;2.00;;;19.00;52.50;;;;;;6241178;23;20219;-87
2022/06/19 02:27:33;;;;;;;10.25;2.20;;;18.80;53.10;;;;;;6234297;23;20231;-85
2022/06/19 02:30:01;;;;;;;5.38;1.90;;;18.70;54.00;;;;;;6268267;23;20133;-85
2022/06/19 02:32:48;;;;;;;7.13;2.40;;;18.60;54.40;;;;;;6232730;22;20156;-85
2022/06/19 02:35:18;;;;;;;10.07;1.85;;;18.40;54.30;;;;;;6221902;23;20187;-85
2022/06/19 02:37:51;;;;;;;9.50;2.05;;;18.20;55.00;;;;;;6221691;23;20195;-85
2022/06/19 02:40:46;;;;;;;11.48;2.58;;;18.20;55.40;;;;;;6222606;23;20235;-85
2022/06/19 02:43:26;;;;;;;6.72;2.05;;;18.10;56.10;;;;;;6228241;23;20202;-85
2022/06/19 02:45:52;;;;;;;8.05;1.90;;;18.10;56.00;;;;;;6258128;23;20172;-87
2022/06/19 02:48:26;;;;;;;11.13;2.03;;;18.10;55.10;;;;;;6232158;23;20160;-86
2022/06/19 02:50:53;;;;;;;8.35;1.80;;;18.00;54.80;;;;;;6261503;23;20567;-86
2022/06/19 02:53:20;;;;;;;4.30;1.95;;;17.90;54.40;;;;;;6234702;23;20168;-87
2022/06/19 02:55:46;;;;;;;10.13;2.42;;;17.90;53.30;;;;;;6221732;23;20160;-87
2022/06/19 02:58:13;;;;;;;4.85;1.70;;;17.80;53.00;;;;;;6220746;23;20156;-86
2022/06/19 03:00:40;;;;;;;7.47;1.63;;;17.80;51.20;;;;;;6220309;23;20180;-86
2022/06/19 03:03:13;;;;;;;4.25;1.65;;;17.80;50.50;;;;;;6247155;22;20192;-87
2022/06/19 03:05:40;;;;;;;7.57;1.77;;;17.80;50.10;;;;;;6220840;23;20686;-86
2022/06/19 03:08:05;;;;;;;8.65;1.50;;;17.80;49.40;;;;;;6220086;23;20210;-87
2022/06/19 03:10:31;;;;;;;5.73;2.07;;;17.70;48.70;;;;;;6220852;23;20153;-86
2022/06/19 03:12:58;;;;;;;11.73;2.03;;;17.70;49.10;;;;;;6198307;23;20211;-86
2022/06/19 03:15:25;;;;;;;5.50;2.00;;;17.70;48.30;;;;;;6235568;23;20156;-86
2022/06/19 03:17:51;;;;;;;8.63;2.10;;;17.80;47.10;;;;;;6234502;23;20494;-86
2022/06/19 03:20:20;;;;;;;6.43;1.43;;;17.80;45.80;;;;;;6233911;23;20179;-87
2022/06/19 03:22:46;;;;;;;8.70;1.85;;;17.70;45.90;;;;;;6228576;23;20426;-86
2022/06/19 03:25:11;;;;;;;4.90;1.50;;;17.60;46.10;;;;;;6229905;23;20184;-86
2022/06/19 03:27:37;;;;;;;4.60;1.70;;;17.60;46.40;;;;;;6258501;23;20387;-86
2022/06/19 03:30:04;;;;;;;6.00;2.07;;;17.50;45.60;;;;;;6231681;23;20364;-85
2022/06/19 03:32:30;;;;;;;11.55;1.73;;;17.50;45.80;;;;;;6229089;22;20649;-85
2022/06/19 03:34:56;;;;;;;6.80;2.00;;;17.40;45.50;;;;;;6227464;23;20160;-86
2022/06/19 03:37:22;;;;;;;10.30;1.50;;;17.40;45.40;;;;;;6220548;23;20168;-86
2022/06/19 03:39:48;;;;;;;4.40;1.50;;;17.40;45.50;;;;;;6221272;23;20160;-86
2022/06/19 03:42:15;;;;;;;7.63;1.50;;;17.40;45.70;;;;;;6221160;22;20396;-85
2022/06/19 03:44:41;;;;;;;6.97;1.85;;;17.40;45.70;;;;;;6220959;23;20200;-86
2022/06/19 03:47:07;;;;;;;10.20;1.60;;;17.40;46.20;;;;;;6221504;23;20153;-85
2022/06/19 03:49:33;;;;;;;6.77;1.47;;;17.40;46.20;;;;;;6221450;23;20540;-86
2022/06/19 03:51:59;;;;;;;7.55;1.48;;;17.40;46.30;;;;;;6221341;23;20383;-86
2022/06/19 03:54:24;;;;;;;7.00;2.00;;;17.40;46.30;;;;;;6220939;23;20180;-86
2022/06/19 03:56:51;;;;;;;8.57;1.63;;;17.40;46.70;;;;;;6221366;23;20414;-86
2022/06/19 03:59:17;;;;;;;4.32;1.75;;;17.40;47.00;;;;;;6221236;23;20157;-86
2022/06/19 04:01:42;;;;;;;12.60;1.75;;;17.40;47.20;;;;;;6221149;23;20156;-86
2022/06/19 04:04:10;;;;;;;4.10;1.60;;;17.40;47.20;;;;;;6220680;23;20641;-86
2022/06/19 04:06:39;;;;;;;8.48;1.98;;;17.40;47.00;;;;;;6248035;23;20151;-86
2022/06/19 04:09:06;;;;;;;5.50;1.67;;;17.50;46.80;;;;;;6221775;23;20152;-86
2022/06/19 04:11:32;;;;;;;7.78;1.77;;;17.50;46.50;;;;;;6221580;23;20148;-86
2022/06/19 04:13:58;;;;;;;4.50;1.70;;;17.60;46.10;;;;;;6221596;23;20231;-86
2022/06/19 04:16:27;;;;;;;5.03;1.50;;;17.70;45.90;;;;;;6248782;23;20375;-86
2022/06/19 04:18:55;;;;;;;4.20;1.60;;;17.80;45.20;;;;;;6222583;23;20383;-86
2022/06/19 04:21:24;;;;;;;7.38;1.42;;;17.80;44.90;;;;;;6222652;23;20167;-86
2022/06/19 04:23:56;;;;;;;4.15;1.60;;;18.00;44.10;;;;;;6249047;22;20279;-85
2022/06/19 04:26:24;;;;;;;5.53;1.67;;;18.10;43.30;;;;;;6222583;23;20153;-85
2022/06/19 04:28:50;;;;;;;4.50;1.90;;;18.20;42.90;;;;;;6222568;23;20157;-84
2022/06/19 04:31:16;;;;;;;3.40;1.97;;;18.10;42.50;;;;;;6223043;23;20610;-85
2022/06/19 04:33:43;;;;;;;6.40;1.65;;;18.10;41.90;;;;;;6222461;23;20539;-85
2022/06/19 04:36:13;;;;;;;6.32;1.58;;;18.00;41.90;;;;;;6222855;23;20153;-84
2022/06/19 04:38:41;;;;;;;4.88;1.50;;;18.00;42.60;;;;;;6223013;23;20730;-85
2022/06/19 04:41:37;;;;;;;3.65;1.52;;;18.00;43.30;;;;;;6223107;23;20163;-85
2022/06/19 04:44:06;;;;;;;3.42;1.20;;;18.20;41.50;;;;;;6221893;23;20275;-85
2022/06/19 04:46:31;;;;;;;2.75;1.30;;;18.30;41.10;;;;;;6238393;23;20202;-85
2022/06/19 04:48:57;;;;;;;3.63;1.17;;;18.30;40.60;;;;;;6239784;23;20168;-85
2022/06/19 04:51:24;;;;;;;4.33;1.53;;;18.40;40.80;;;;;;6235757;23;20222;-86
2022/06/19 04:53:50;;;;;;;4.78;1.48;;;18.60;39.70;;;;;;6221711;23;20407;-86
2022/06/19 04:56:18;;;;;;;2.70;1.13;;;18.50;40.20;;;;;;6221588;23;20153;-86
2022/06/19 04:58:44;;;;;;;3.83;1.92;;;18.50;40.90;;;;;;6221407;23;20391;-86
2022/06/19 05:01:24;;;;;;;3.47;1.40;;;18.60;39.80;;;;;;6249571;23;20149;-86
2022/06/19 05:03:52;;;;;;;5.20;1.52;;;18.80;39.00;;;;;;6248619;22;20652;-86
2022/06/19 05:06:19;;;;;;;5.57;1.40;;;18.80;39.70;;;;;;6222584;23;20153;-86
2022/06/19 05:08:44;;;;;;;4.20;1.50;;;18.80;40.90;;;;;;6231559;23;20216;-86
2022/06/19 05:11:11;;;;;;;7.20;1.50;;;18.60;41.30;;;;;;6235737;23;20152;-86
2022/06/19 05:13:38;;;;;;;8.82;1.40;;;18.40;42.40;;;;;;6259663;22;20427;-86
2022/06/19 05:16:06;;;;;;;3.72;1.73;;;18.40;42.10;;;;;;6222245;23;20603;-86
2022/06/19 05:18:33;;;;;;;8.07;1.88;;;18.40;41.70;;;;;;6249209;23;20152;-87
2022/06/19 05:21:04;;;;;;;4.55;2.00;;;18.30;41.80;;;;;;6221565;23;20152;-87
2022/06/19 05:23:34;;;;;;;4.20;1.73;;;18.30;41.00;;;;;;6221263;23;20200;-87
2022/06/19 05:26:21;;;;;;;5.00;1.45;;;18.40;39.70;;;;;;6221749;23;20245;-87
2022/06/19 05:28:49;;;;;;;6.47;1.40;;;18.40;38.70;;;;;;6248932;23;20141;-87
2022/06/19 05:31:15;;;;;;;4.82;1.52;;;18.40;39.90;;;;;;6230863;23;20168;-86
2022/06/19 05:33:41;;;;;;;8.13;1.40;;;18.40;40.30;;;;;;6239706;23;20157;-85
2022/06/19 05:36:07;;;;;;;3.57;1.47;;;18.50;39.40;;;;;;6229345;23;20244;-86
2022/06/19 05:38:33;;;;;;;3.07;1.60;;;18.70;40.30;;;;;;6220664;23;20160;-85
2022/06/19 05:41:00;;;;;;;18.92;2.45;;;18.80;40.20;;;;;;6220389;23;20426;-85
2022/06/19 05:43:29;;;;;;;3.72;1.30;;;18.80;39.90;;;;;;6221294;23;20211;-85
2022/06/19 05:46:04;;;;;;;6.43;2.03;;;18.90;40.60;;;;;;6220408;23;20270;-86
2022/06/19 05:48:30;;;;;;;10.02;1.80;;;19.00;40.60;;;;;;6219758;23;20225;-86
2022/06/19 05:51:16;;;;;;;5.78;2.03;;;18.90;41.20;;;;;;6220229;23;20153;-86
2022/06/19 05:53:52;;;;;;;7.38;2.05;;;19.00;42.20;;;;;;6220023;23;20227;-86
2022/06/19 05:56:18;;;;;;;6.07;2.08;;;19.00;43.60;;;;;;6219863;23;20155;-86
2022/06/19 05:58:44;;;;;;;4.80;1.80;;;19.10;45.00;;;;;;6219723;23;20152;-85
2022/06/19 06:01:11;;;;;;;5.20;1.70;;;19.00;46.10;;;;;;6220912;23;20653;-85
2022/06/19 06:03:37;;;;;;;5.88;1.98;;;19.10;46.30;;;;;;6221591;23;20589;-84
2022/06/19 06:06:06;;;;;;;4.83;2.07;;;19.10;46.60;;;;;;6195921;23;20156;-85
2022/06/19 06:08:35;;;;;;;8.70;2.15;;;19.10;47.30;;;;;;6220424;23;20378;-84
2022/06/19 06:11:01;;;;;;;6.45;2.25;;;19.10;49.50;;;;;;6247768;23;20727;-85
2022/06/19 06:13:29;;;;;;;7.57;2.53;;;19.10;51.90;;;;;;6220871;23;20172;-84
2022/06/19 06:15:56;;;;;;;6.97;2.10;;;19.20;51.70;;;;;;6220535;23;20387;-85
2022/06/19 06:18:22;;;;;;;7.75;2.05;;;19.10;51.20;;;;;;6247465;23;20164;-85
2022/06/19 06:21:14;;;;;;;6.68;2.53;;;19.10;51.50;;;;;;6247645;23;20144;-85
2022/06/19 06:23:41;;;;;;;7.38;2.50;;;19.00;52.00;;;;;;6195323;23;20184;-85
2022/06/19 06:26:19;;;;;;;11.38;2.58;;;19.10;53.70;;;;;;6220558;23;20191;-85
2022/06/19 06:28:48;;;;;;;12.88;2.85;;;19.00;57.90;;;;;;6247766;23;20160;-87
2022/06/19 06:31:15;;;;;;;12.15;2.80;;;19.00;61.70;;;;;;6220255;23;20161;-88
2022/06/19 06:33:41;;;;;;;8.35;2.70;;;18.80;63.30;;;;;;6221026;23;20188;-86
2022/06/19 06:36:08;;;;;;;8.13;2.60;;;18.60;65.40;;;;;;6226283;23;20157;-86
2022/06/19 06:38:34;;;;;;;11.20;2.40;;;18.40;66.70;;;;;;6232195;23;20618;-86
2022/06/19 06:41:00;;;;;;;11.93;2.90;;;18.20;69.10;;;;;;6252176;23;20235;-85
2022/06/19 06:43:26;;;;;;;10.57;3.85;;;18.00;70.80;;;;;;6248435;22;20857;-85
2022/06/19 06:45:52;;;;;;;15.48;3.67;;;17.80;72.30;;;;;;6220579;23;20528;-87
2022/06/19 06:48:19;;;;;;;15.05;3.35;;;17.70;73.70;;;;;;6246879;23;20618;-85
2022/06/19 06:50:46;;;;;;;6.90;2.70;;;17.60;75.00;;;;;;6220155;23;20153;-86
2022/06/19 06:53:17;;;;;;;24.27;4.90;;;17.30;75.70;;;;;;6246717;22;20176;-86
2022/06/19 06:55:45;;;;;;;14.30;3.03;;;16.50;78.80;;;;;;6220685;23;20529;-87
2022/06/19 06:58:11;;;;;;;13.43;3.45;;;16.00;83.00;;;;;;6220664;23;20176;-84
2022/06/19 07:00:37;;;;;;;9.80;3.05;;;15.60;86.30;;;;;;6248498;23;20156;-86
2022/06/19 07:03:06;;;;;;;10.00;3.23;;;15.10;87.90;;;;;;6221524;23;20662;-86
2022/06/19 07:05:32;;;;;;;9.00;4.05;;;14.90;90.00;;;;;;6221773;23;20435;-86
2022/06/19 07:07:59;;;;;;;21.42;4.60;;;14.70;92.60;;;;;;6221604;23;20501;-87
2022/06/19 07:10:25;;;;;;;16.15;5.20;;;14.80;94.90;;;;;;6220692;23;20156;-86
2022/06/19 07:12:51;;;;;;;11.63;4.78;;;14.90;96.20;;;;;;6221111;23;20179;-85
2022/06/19 07:15:17;;;;;;;15.47;4.47;;;15.00;97.30;;;;;;6228705;23;20172;-84
2022/06/19 07:17:43;;;;;;;8.18;3.88;;;15.00;97.50;;;;;;6233198;23;20172;-84
2022/06/19 07:20:09;;;;;;;15.70;5.25;;;15.20;98.40;;;;;;6232591;23;20179;-84
2022/06/19 07:22:36;;;;;;;8.35;4.10;;;15.40;99.50;;;;;;6222277;22;20183;-85
2022/06/19 07:25:03;;;;;;;11.50;4.85;;;15.50;99.90;;;;;;6220932;23;20271;-85
2022/06/19 07:27:29;;;;;;;14.35;4.90;;;15.70;99.90;;;;;;6220950;23;20164;-84
2022/06/19 07:29:55;;;;;;;14.63;4.90;;;15.90;99.90;;;;;;6222080;23;20495;-86
2022/06/19 07:32:20;;;;;;;9.87;3.97;;;16.10;99.90;;;;;;6230188;22;20163;-87
2022/06/19 07:34:46;;;;;;;8.07;3.80;;;16.10;99.90;;;;;;6236325;23;20145;-85
2022/06/19 07:37:16;;;;;;;15.43;3.70;;;16.10;99.90;;;;;;6238980;23;20164;-87
2022/06/19 07:39:43;;;;;;;12.75;3.97;;;16.00;99.80;;;;;;6238976;23;20161;-86
2022/06/19 07:42:09;;;;;;;13.25;4.05;;;16.00;99.00;;;;;;6262922;23;20559;-86
2022/06/19 07:44:36;;;;;;;10.90;3.72;;;16.00;99.00;;;;;;6233367;23;20195;-87
2022/06/19 07:50:09;;;;;;;15.90;4.00;;;16.00;97.60;;;;;;6202956;23;20190;-84
2022/06/19 07:52:36;;;;;;;13.20;4.07;;;15.80;96.20;;;;;;6219029;22;20177;-86
2022/06/19 07:55:02;;;;;;;17.30;4.10;;;15.90;96.60;;;;;;6246073;23;20153;-86
2022/06/19 07:57:28;;;;;;;10.35;3.42;;;16.00;96.30;;;;;;6219045;23;20161;-85
2022/06/19 07:59:55;;;;;;;13.03;3.83;;;16.00;94.30;;;;;;6219173;23;20476;-86
2022/06/19 08:02:20;;;;;;;10.85;3.80;;;16.00;93.60;;;;;;6246476;22;20149;-86
2022/06/19 08:04:46;;;;;;;15.73;3.60;;;15.80;90.70;;;;;;6219142;23;20180;-86
2022/06/19 08:07:13;;;;;;;9.20;3.93;;;15.70;90.30;;;;;;6218675;23;20153;-87
2022/06/19 08:09:40;;;;;;;13.30;3.42;;;15.70;90.30;;;;;;6246329;23;20145;-86
2022/06/19 08:12:06;;;;;;;15.02;4.13;;;15.80;89.80;;;;;;6219924;23;20203;-86
2022/06/19 08:14:32;;;;;;;10.52;4.60;;;15.80;89.30;;;;;;6222868;23;20232;-86
2022/06/19 08:16:58;;;;;;;13.87;5.70;;;15.80;89.90;;;;;;6228277;23;20173;-85
2022/06/19 08:19:23;;;;;;;15.47;4.60;;;15.80;88.70;;;;;;6200343;23;20164;-85
2022/06/19 08:21:55;;;;;;;14.70;7.10;;;15.90;87.80;;;;;;6221026;23;20226;-84
2022/06/19 08:24:21;;;;;;;14.98;7.63;;;16.00;88.50;;;;;;6221281;23;20757;-85
2022/06/19 08:26:51;;;;;;;11.30;6.80;;;16.00;87.30;;;;;;6221422;23;20153;-86
2022/06/19 08:29:17;;;;;;;15.02;6.60;;;16.10;87.00;;;;;;6223559;23;20149;-86
2022/06/19 08:31:43;;;;;;;10.20;5.40;;;16.20;87.20;;;;;;6222373;23;20163;-85
2022/06/19 08:34:09;;;;;;;8.53;5.50;;;16.20;86.30;;;;;;6227531;23;20403;-84
2022/06/19 08:36:36;;;;;;;13.93;6.00;;;16.40;85.00;;;;;;6229755;23;20191;-83
2022/06/19 08:39:09;;;;;;;12.77;4.63;;;16.50;85.70;;;;;;6225852;23;20893;-84
2022/06/19 08:42:02;;;;;;;10.80;4.25;;;16.60;84.40;;;;;;6225052;23;20608;-85
2022/06/19 08:44:46;;;;;;;12.45;4.15;;;16.70;83.40;;;;;;6220431;23;20192;-85
2022/06/19 08:47:52;;;;;;;17.52;4.88;;;17.00;83.70;;;;;;6220049;23;20184;-85
2022/06/19 08:50:56;;;;;;;8.95;3.60;;;17.10;83.30;;;;;;6246646;23;20133;-86
2022/06/19 08:53:41;;;;;;;14.93;3.80;;;17.30;82.80;;;;;;6247903;22;20517;-85
2022/06/19 08:56:22;;;;;;;9.90;2.90;;;17.40;79.40;;;;;;6220797;23;20163;-85
2022/06/19 08:58:56;;;;;;;6.82;3.83;;;17.40;78.20;;;;;;6247688;23;20163;-84
2022/06/19 09:01:48;;;;;;;8.10;3.58;;;17.30;80.90;;;;;;6221102;23;20156;-86
2022/06/19 09:07:25;;;;;;;7.97;3.03;;;17.60;78.70;;;;;;6247708;23;20634;-86
2022/06/19 09:10:18;;;;;;;11.32;3.63;;;17.80;76.90;;;;;;6220018;23;20210;-86
2022/06/19 09:12:59;;;;;;;8.23;3.35;;;17.90;76.30;;;;;;6219553;23;20176;-86
2022/06/19 09:15:40;;;;;;;13.40;3.75;;;17.90;75.80;;;;;;6247329;23;20152;-86
2022/06/19 09:18:19;;;;;;;7.20;3.20;;;18.00;75.10;;;;;;6219899;23;20255;-86
2022/06/19 09:21:09;;;;;;;13.82;3.33;;;18.00;74.20;;;;;;6220829;23;20583;-86
2022/06/19 09:23:41;;;;;;;6.10;2.55;;;18.00;74.60;;;;;;6220401;23;20701;-86
2022/06/19 09:26:15;;;;;;;10.82;2.83;;;18.10;72.00;;;;;;6220543;23;20267;-86
2022/06/19 09:28:44;;;;;;;10.13;3.15;;;18.10;72.60;;;;;;6220586;23;20156;-86
2022/06/19 09:31:33;;;;;;;7.38;3.08;;;17.90;73.30;;;;;;6220593;23;20228;-85
2022/06/19 09:34:08;;;;;;;7.65;2.83;;;18.20;73.90;;;;;;6216951;23;20223;-86
2022/06/19 09:36:44;;;;;;;15.45;3.35;;;18.50;72.80;;;;;;6220634;23;20227;-86
2022/06/19 09:39:35;;;;;;;9.68;2.67;;;18.50;72.60;;;;;;6247563;23;20140;-86
2022/06/19 09:42:29;;;;;;;13.32;3.05;;;18.60;72.40;;;;;;6220852;23;20537;-86
2022/06/19 09:45:07;;;;;;;8.77;3.42;;;18.80;71.10;;;;;;6227075;23;20184;-87
2022/06/19 09:47:42;;;;;;;4.75;2.65;;;19.00;69.10;;;;;;6230054;23;20647;-86
2022/06/19 09:50:23;;;;;;;6.65;2.60;;;19.20;67.50;;;;;;6227266;23;20156;-87
2022/06/19 09:52:49;;;;;;;7.20;2.78;;;19.20;66.80;;;;;;6221485;23;20651;-85
2022/06/19 09:55:36;;;;;;;10.70;3.50;;;19.40;66.10;;;;;;6222387;23;20161;-87
2022/06/19 09:58:15;;;;;;;8.85;3.05;;;19.40;66.40;;;;;;6224445;23;20587;-86
2022/06/19 10:00:44;;;;;;;6.38;2.90;;;19.10;65.60;;;;;;6229035;23;20240;-86
2022/06/19 10:03:22;;;;;;;13.13;2.85;;;19.00;65.60;;;;;;6225038;23;20267;-86
2022/06/19 10:06:04;;;;;;;10.20;2.72;;;18.90;66.80;;;;;;6225664;23;20203;-86
2022/06/19 10:08:43;;;;;;;7.68;3.08;;;19.10;66.70;;;;;;6221165;23;20203;-87
2022/06/19 10:11:38;;;;;;;8.35;3.85;;;19.30;67.00;;;;;;6246309;23;20152;-85
2022/06/19 10:14:10;;;;;;;7.50;2.53;;;19.20;66.90;;;;;;6219533;23;20255;-86
2022/06/19 10:16:45;;;;;;;9.30;2.85;;;19.30;67.10;;;;;;6217734;23;20169;-84
2022/06/19 10:19:16;;;;;;;7.70;3.05;;;19.30;67.50;;;;;;6220373;23;20151;-84
2022/06/19 10:25:10;;;;;;;9.20;2.53;;;19.40;66.00;;;;;;6246332;22;20477;-84
2022/06/19 10:28:08;;;;;;;5.13;2.10;;;19.60;66.40;;;;;;6219812;23;20386;-85
2022/06/19 10:30:49;;;;;;;6.67;2.20;;;19.90;63.00;;;;;;6170178;23;20390;-85
2022/06/19 10:33:29;;;;;;;6.03;1.87;;;20.10;59.50;;;;;;6220232;23;20477;-86
2022/06/19 10:36:12;;;;;;;7.40;2.27;;;20.10;59.40;;;;;;6247370;23;20363;-86
2022/06/19 10:38:57;;;;;;;5.40;2.53;;;20.30;58.90;;;;;;6220064;23;20780;-86
2022/06/19 10:42:01;;;;;;;9.57;2.20;;;20.30;58.90;;;;;;6221286;23;20441;-86
2022/06/19 10:45:01;;;;;;;6.60;2.23;;;20.30;60.70;;;;;;6219737;23;20435;-86
2022/06/19 10:47:38;;;;;;;3.80;2.27;;;20.40;58.70;;;;;;6138760;23;20390;-84
2022/06/19 10:50:28;;;;;;;4.43;1.97;;;20.40;58.60;;;;;;6246810;23;20916;-84
2022/06/19 10:53:06;;;;;;;6.77;3.07;;;20.50;59.10;;;;;;6219957;23;20407;-84
2022/06/19 10:55:49;;;;;;;12.33;2.73;;;20.80;59.10;;;;;;6220380;23;20387;-87
2022/06/19 10:58:30;;;;;;;7.97;2.10;;;21.00;59.10;;;;;;6193657;23;20391;-86
2022/06/19 11:00:59;;;;;;;4.70;1.70;;;21.20;57.60;;;;;;6246567;23;20871;-86
2022/06/19 11:04:11;;;;;;;6.07;2.07;;;21.20;58.70;;;;;;6220062;23;20468;-86
2022/06/19 11:06:49;;;;;;;3.73;2.10;;;21.50;57.00;;;;;;6209830;23;20402;-86
2022/06/19 11:09:24;;;;;;;5.50;2.10;;;21.40;57.10;;;;;;6220354;23;20386;-87
2022/06/19 11:11:54;;;;;;;8.87;2.23;;;21.30;58.50;;;;;;6247930;23;20368;-86
2022/06/19 11:14:26;;;;;;;8.07;2.00;;;21.00;59.50;;;;;;6197668;23;20403;-86
2022/06/19 11:17:00;;;;;;;5.10;2.00;;;21.40;58.30;;;;;;6231628;23;20395;-84
2022/06/19 11:19:42;;;;;;;3.70;1.87;;;21.70;56.60;;;;;;6229282;23;20384;-87
2022/06/19 11:22:27;;;;;;;6.60;2.13;;;21.80;55.50;;;;;;6222660;23;20402;-85
2022/06/19 11:24:55;;;;;;;5.80;2.13;;;21.80;55.10;;;;;;6222468;23;20909;-86
2022/06/19 11:27:24;;;;;;;8.23;2.63;;;22.10;54.40;;;;;;6250571;23;20378;-86
2022/06/19 11:29:53;;;;;;;7.70;2.53;;;22.10;53.70;;;;;;6222629;23;20858;-85
2022/06/19 11:32:22;;;;;;;4.60;2.50;;;21.90;54.70;;;;;;6249333;22;20372;-85
2022/06/19 11:35:04;;;;;;;5.13;2.53;;;21.40;56.80;;;;;;6199530;23;20475;-86
2022/06/19 11:37:37;;;;;;;5.10;2.30;;;21.70;56.50;;;;;;6259803;23;20375;-84
2022/06/19 11:40:06;;;;;;;4.60;2.53;;;21.80;56.00;;;;;;6239071;23;20945;-86
2022/06/19 11:42:59;;;;;;;3.50;2.10;;;21.70;56.40;;;;;;6222674;22;20391;-89
2022/06/19 11:45:31;;;;;;;5.57;2.87;;;21.50;57.70;;;;;;6217597;23;20481;-86
2022/06/19 11:48:02;;;;;;;13.93;3.23;;;21.20;60.40;;;;;;6221143;23;20945;-85
2022/06/19 11:50:33;;;;;;;6.50;2.33;;;20.60;63.00;;;;;;6250049;23;20348;-86
2022/06/19 11:53:27;;;;;;;9.10;3.30;;;20.40;64.60;;;;;;6223556;23;20860;-86
2022/06/19 11:56:30;;;;;;;5.00;2.70;;;20.30;65.90;;;;;;6216077;23;20383;-87
2022/06/19 11:58:59;;;;;;;4.37;2.83;;;20.70;64.00;;;;;;6229387;23;20711;-84
2022/06/19 12:01:44;;;;;;;7.50;2.53;;;20.90;62.90;;;;;;6226002;23;20383;-86
2022/06/19 12:04:38;;;;;;;5.33;2.27;;;20.60;64.00;;;;;;6228603;23;20426;-86
2022/06/19 12:07:11;;;;;;;5.33;2.70;;;20.70;63.10;;;;;;6228373;23;20387;-87
2022/06/19 12:10:02;;;;;;;3.83;2.00;;;20.80;62.50;;;;;;6229273;23;20382;-84
2022/06/19 12:12:32;;;;;;;4.43;2.93;;;20.70;65.10;;;;;;6230425;22;20866;-85
2022/06/19 12:15:11;;;;;;;9.47;4.47;;;20.60;64.90;;;;;;6256044;23;20447;-86
2022/06/19 12:17:41;;;;;;;6.60;2.20;;;20.30;65.90;;;;;;6227018;23;20410;-86
2022/06/19 12:20:07;;;;;;;11.23;3.30;;;20.30;66.40;;;;;;6253374;23;20371;-86
2022/06/19 12:22:35;;;;;;;9.57;3.13;;;20.60;64.00;;;;;;6226601;22;20417;-86
2022/06/19 12:25:08;;;;;;;4.13;2.23;;;20.30;65.20;;;;;;6224374;23;20191;-86
2022/06/19 12:27:42;;;;;;;5.87;2.30;;;20.20;66.70;;;;;;6227430;23;20380;-85
2022/06/19 12:30:17;;;;;;;7.00;2.20;;;20.50;65.10;;;;;;6228271;23;20378;-86
2022/06/19 12:32:48;;;;;;;5.87;2.43;;;20.20;65.50;;;;;;6205124;23;20402;-85
2022/06/19 12:35:37;;;;;;;8.87;2.90;;;20.00;67.10;;;;;;6256700;23;20356;-86
2022/06/19 12:38:11;;;;;;;11.07;2.87;;;20.10;67.00;;;;;;6251596;23;20423;-87
2022/06/19 12:41:06;;;;;;;8.65;4.13;;;19.80;68.00;;;;;;6223212;23;20367;-84
2022/06/19 12:44:03;;;;;;;9.53;4.20;;;19.70;71.50;;;;;;6211027;23;20255;-86
2022/06/19 12:46:47;;;;;;;5.82;3.25;;;19.30;74.60;;;;;;6223105;23;20422;-86
2022/06/19 12:49:56;;;;;;;8.98;4.40;;;19.00;77.00;;;;;;6222009;23;20203;-88
2022/06/19 12:52:47;;;;;;;14.20;4.88;;;18.80;81.80;;;;;;6221190;22;20579;-87
2022/06/19 12:55:45;;;;;;;11.68;5.00;;;18.50;84.00;;;;;;6221369;23;20173;-86
2022/06/19 12:58:36;;;;;;;8.77;4.50;;;18.50;82.10;;;;;;6220340;23;20572;-86
2022/06/19 13:01:18;;;;;;;12.68;5.07;;;18.50;82.50;;;;;;6221003;23;20235;-86
2022/06/19 13:04:08;;;;;;;12.68;5.82;;;18.30;83.20;;;;;;6221286;23;20379;-86
2022/06/19 13:06:57;;;;;;;9.43;6.07;;;18.20;86.10;;;;;;6221674;23;20223;-85
2022/06/19 13:09:37;;;;;;;12.98;6.45;;;17.90;85.30;;;;;;6249246;23;20137;-84
2022/06/19 13:12:40;;;;;;;9.20;6.47;;;17.80;86.70;;;;;;6226137;23;20145;-86
2022/06/19 13:15:11;;;;;;;13.80;7.05;;;17.70;88.70;;;;;;6222870;23;20156;-85
2022/06/19 13:17:40;;;;;;;9.50;5.63;;;17.60;86.60;;;;;;6223813;23;20233;-85
2022/06/19 13:20:41;;;;;;;13.80;6.05;;;17.70;87.00;;;;;;6222806;23;20183;-86
2022/06/19 13:23:23;;;;;;;13.75;6.80;;;17.70;86.10;;;;;;6173118;23;20176;-86
2022/06/19 13:25:57;;;;;;;12.95;7.40;;;17.70;85.60;;;;;;6248186;23;20222;-86